Time,TemperatureF,DewpointF,PressureIn,WindDirection,WindDirectionDegrees,WindSpeedMPH,WindSpeedGustMPH,Humidity,HourlyPrecipIn,Conditions,Clouds,dailyrainin,SoftwareType,DateUTC
2013-01-30 00:00:00,48.3,44.0,29.89,SE,132,0.0,0.0,85,0.00,,---,0.00,VWS V14.01,2013-01-30 05:00:00,
2013-01-30 00:01:00,48.3,44.0,29.89,SE,132,0.0,0.0,85,0.00,,---,0.00,VWS V14.01,2013-01-30 05:01:00,
2013-01-30 00:02:00,48.2,43.9,29.89,SE,132,0.0,0.0,85,0.00,,---,0.00,VWS V14.01,2013-01-30 05:02:00,
2013-01-30 00:07:00,48.2,44.2,29.89,SE,132,0.0,0.0,86,0.00,,---,0.00,VWS V14.01,2013-01-30 05:07:00,
2013-01-30 00:12:00,48.0,44.0,29.89,SE,132,0.0,0.0,86,0.00,,---,0.00,VWS V14.01,2013-01-30 05:12:00,
2013-01-30 00:17:00,47.7,43.7,29.89,SE,132,0.0,0.0,86,0.00,,---,0.00,VWS V14.01,2013-01-30 05:17:00,
2013-01-30 00:22:00,47.4,43.4,29.89,SE,132,0.0,0.0,86,0.00,,---,0.00,VWS V14.01,2013-01-30 05:22:00,
2013-01-30 00:27:00,47.1,43.4,29.89,SE,132,0.0,0.0,87,0.00,,---,0.00,VWS V14.01,2013-01-30 05:27:00,
2013-01-30 00:32:00,47.1,43.7,29.88,SE,132,0.0,0.0,88,0.00,,---,0.00,VWS V14.01,2013-01-30 05:32:00,
2013-01-30 00:37:00,47.3,44.2,29.88,SE,132,0.0,0.0,89,0.00,,---,0.00,VWS V14.01,2013-01-30 05:37:00,
2013-01-30 00:42:00,47.7,44.9,29.88,SE,132,0.0,0.0,90,0.00,,---,0.00,VWS V14.01,2013-01-30 05:42:00,
2013-01-30 00:47:00,48.0,45.2,29.87,SE,132,0.0,0.0,90,0.00,,---,0.00,VWS V14.01,2013-01-30 05:47:00,
2013-01-30 00:52:00,48.0,45.2,29.87,SE,132,0.0,0.0,90,0.00,,---,0.00,VWS V14.01,2013-01-30 05:52:00,
2013-01-30 00:57:00,47.7,44.9,29.87,SE,132,0.0,0.0,90,0.00,,---,0.00,VWS V14.01,2013-01-30 05:57:00,
2013-01-30 01:02:00,47.9,45.4,29.85,SE,132,0.0,0.0,91,0.00,,---,0.00,VWS V14.01,2013-01-30 06:02:00,
2013-01-30 01:07:00,48.3,45.8,29.85,SE,132,0.0,0.0,91,0.00,,---,0.00,VWS V14.01,2013-01-30 06:07:00,
2013-01-30 01:12:00,48.3,46.1,29.85,SE,132,0.0,0.0,92,0.00,,---,0.00,VWS V14.01,2013-01-30 06:12:00,
2013-01-30 01:17:00,48.8,46.6,29.85,SE,132,0.0,0.0,92,0.00,,---,0.00,VWS V14.01,2013-01-30 06:17:00,
2013-01-30 01:22:00,48.9,46.7,29.85,SE,132,0.0,0.0,92,0.00,,---,0.00,VWS V14.01,2013-01-30 06:22:00,
2013-01-30 01:27:00,49.2,47.3,29.85,SE,132,0.0,0.0,93,0.00,,---,0.00,VWS V14.01,2013-01-30 06:27:00,
2013-01-30 01:32:00,49.4,47.5,29.84,SE,132,0.0,0.0,93,0.00,,---,0.00,VWS V14.01,2013-01-30 06:32:00,
2013-01-30 01:37:00,49.1,46.9,29.84,SE,132,0.0,0.0,92,0.00,,---,0.00,VWS V14.01,2013-01-30 06:37:00,
2013-01-30 01:42:00,48.8,46.6,29.84,SE,132,0.0,0.0,92,0.00,,---,0.00,VWS V14.01,2013-01-30 06:42:00,
2013-01-30 01:47:00,48.8,46.6,29.84,SE,132,0.0,0.0,92,0.00,,---,0.00,VWS V14.01,2013-01-30 06:47:00,
2013-01-30 01:52:00,48.8,46.6,29.84,SE,132,0.0,0.0,92,0.00,,---,0.00,VWS V14.01,2013-01-30 06:52:00,
2013-01-30 01:57:00,48.5,46.3,29.84,SE,132,0.0,0.0,92,0.00,,---,0.00,VWS V14.01,2013-01-30 06:57:00,
2013-01-30 02:02:00,48.0,45.8,29.83,SE,132,0.0,1.0,92,0.00,,---,0.00,VWS V14.01,2013-01-30 07:02:00,
2013-01-30 02:07:00,48.0,46.1,29.83,SE,132,1.0,2.0,93,0.00,,---,0.00,VWS V14.01,2013-01-30 07:07:00,
2013-01-30 02:12:00,48.3,46.4,29.83,SE,132,0.0,0.0,93,0.00,,---,0.00,VWS V14.01,2013-01-30 07:12:00,
2013-01-30 02:17:00,48.8,47.2,29.82,SE,132,0.0,0.0,94,0.00,,---,0.00,VWS V14.01,2013-01-30 07:17:00,
2013-01-30 02:22:00,48.8,46.6,29.82,SE,132,0.0,0.0,92,0.00,,---,0.00,VWS V14.01,2013-01-30 07:22:00,
2013-01-30 02:27:00,48.5,46.6,29.82,SE,132,0.0,0.0,93,0.00,,---,0.00,VWS V14.01,2013-01-30 07:27:00,
2013-01-30 02:32:00,48.5,46.6,29.81,SE,132,0.0,0.0,93,0.00,,---,0.00,VWS V14.01,2013-01-30 07:32:00,
2013-01-30 02:37:00,48.6,46.7,29.81,SE,132,0.0,0.0,93,0.00,,---,0.00,VWS V14.01,2013-01-30 07:37:00,
2013-01-30 02:42:00,48.6,46.7,29.81,SE,132,0.0,0.0,93,0.00,,---,0.00,VWS V14.01,2013-01-30 07:42:00,
2013-01-30 02:47:00,48.6,47.0,29.81,SE,132,0.0,1.0,94,0.00,,---,0.00,VWS V14.01,2013-01-30 07:47:00,
2013-01-30 02:52:00,48.9,47.2,29.81,SE,132,0.0,0.0,94,0.00,,---,0.00,VWS V14.01,2013-01-30 07:52:00,
2013-01-30 02:57:00,48.9,47.2,29.81,SE,132,0.0,0.0,94,0.00,,---,0.00,VWS V14.01,2013-01-30 07:57:00,
2013-01-30 03:02:00,49.2,47.8,29.81,SE,132,1.0,2.0,95,0.00,,---,0.00,VWS V14.01,2013-01-30 08:02:00,
2013-01-30 03:07:00,49.5,47.8,29.81,SE,132,0.0,0.0,94,0.00,,---,0.00,VWS V14.01,2013-01-30 08:07:00,
2013-01-30 03:12:00,49.8,48.2,29.81,SE,132,0.0,0.0,94,0.00,,---,0.00,VWS V14.01,2013-01-30 08:12:00,
2013-01-30 03:17:00,49.5,47.8,29.80,SE,132,0.0,0.0,94,0.00,,---,0.00,VWS V14.01,2013-01-30 08:17:00,
2013-01-30 03:22:00,49.4,47.8,29.80,SE,132,0.0,0.0,94,0.00,,---,0.00,VWS V14.01,2013-01-30 08:22:00,
2013-01-30 03:27:00,49.5,48.1,29.80,SE,132,0.0,0.0,95,0.00,,---,0.00,VWS V14.01,2013-01-30 08:27:00,
2013-01-30 03:32:00,50.4,49.0,29.79,SE,132,0.0,0.0,95,0.00,,---,0.00,VWS V14.01,2013-01-30 08:32:00,
2013-01-30 03:37:00,51.0,49.6,29.79,SE,132,0.0,0.0,95,0.00,,---,0.00,VWS V14.01,2013-01-30 08:37:00,
2013-01-30 03:42:00,51.6,50.2,29.79,SE,132,0.0,1.0,95,0.00,,---,0.00,VWS V14.01,2013-01-30 08:42:00,
2013-01-30 03:47:00,53.1,52.0,29.78,SSE,153,0.0,0.0,96,0.00,,---,0.00,VWS V14.01,2013-01-30 08:47:00,
2013-01-30 03:52:00,54.2,53.1,29.78,South,171,2.0,4.0,96,0.00,,---,0.00,VWS V14.01,2013-01-30 08:52:00,
2013-01-30 03:57:00,56.5,55.1,29.78,SSE,151,1.0,6.0,95,0.00,,---,0.00,VWS V14.01,2013-01-30 08:57:00,
2013-01-30 04:02:00,57.8,55.2,29.77,SW,227,6.0,7.0,91,0.00,,---,0.00,VWS V14.01,2013-01-30 09:02:00,
2013-01-30 04:07:00,58.7,54.8,29.77,SSW,197,6.0,11.0,87,0.00,,---,0.00,VWS V14.01,2013-01-30 09:07:00,
2013-01-30 04:11:00,59.5,55.0,29.77,SSW,202,2.0,5.0,85,0.00,,---,0.00,VWS V14.01,2013-01-30 09:11:00,
2013-01-30 04:16:00,60.1,54.6,29.77,SSE,164,9.0,11.0,82,0.00,,---,0.00,VWS V14.01,2013-01-30 09:16:00,
2013-01-30 04:21:00,60.5,54.7,29.77,South,180,1.0,2.0,81,0.00,,---,0.00,VWS V14.01,2013-01-30 09:21:00,
2013-01-30 04:26:00,60.9,55.0,29.77,South,174,4.0,10.0,81,0.00,,---,0.00,VWS V14.01,2013-01-30 09:26:00,
2013-01-30 04:31:00,61.2,55.0,29.75,SSW,210,2.0,7.0,80,0.00,,---,0.00,VWS V14.01,2013-01-30 09:31:00,
2013-01-30 04:36:00,61.3,54.7,29.75,South,175,2.0,2.0,79,0.00,,---,0.00,VWS V14.01,2013-01-30 09:36:00,
2013-01-30 04:41:00,61.3,54.7,29.75,SSE,153,4.0,5.0,79,0.00,,---,0.00,VWS V14.01,2013-01-30 09:41:00,
2013-01-30 04:46:00,61.3,54.7,29.73,SE,145,5.0,7.0,79,0.00,,---,0.00,VWS V14.01,2013-01-30 09:46:00,
2013-01-30 04:51:00,61.6,55.4,29.73,SSE,148,3.0,8.0,80,0.00,,---,0.00,VWS V14.01,2013-01-30 09:51:00,
2013-01-30 04:56:00,62.3,55.4,29.73,SE,136,6.0,9.0,78,0.00,,---,0.00,VWS V14.01,2013-01-30 09:56:00,
2013-01-30 05:01:00,62.4,55.5,29.72,South,172,4.0,5.0,78,0.00,,---,0.00,VWS V14.01,2013-01-30 10:01:00,
2013-01-30 05:06:00,62.6,55.7,29.72,SE,130,5.0,10.0,78,0.00,,---,0.00,VWS V14.01,2013-01-30 10:06:00,
2013-01-30 05:11:00,62.7,55.8,29.72,SE,125,4.0,7.0,78,0.00,,---,0.00,VWS V14.01,2013-01-30 10:11:00,
2013-01-30 05:16:00,62.7,55.8,29.71,SE,134,7.0,11.0,78,0.00,,---,0.00,VWS V14.01,2013-01-30 10:16:00,
2013-01-30 05:21:00,62.7,55.4,29.71,SE,130,4.0,6.0,77,0.00,,---,0.00,VWS V14.01,2013-01-30 10:21:00,
2013-01-30 05:26:00,62.4,55.5,29.71,SW,234,6.0,9.0,78,0.00,,---,0.00,VWS V14.01,2013-01-30 10:26:00,
2013-01-30 05:32:00,62.4,55.5,29.72,SE,124,8.0,9.0,78,0.00,,---,0.00,VWS V14.01,2013-01-30 10:32:00,
2013-01-30 05:37:00,62.4,55.5,29.72,SE,137,5.0,8.0,78,0.00,,---,0.00,VWS V14.01,2013-01-30 10:37:00,
2013-01-30 05:42:00,62.4,55.5,29.72,SE,140,5.0,6.0,78,0.00,,---,0.00,VWS V14.01,2013-01-30 10:42:00,
2013-01-30 05:46:00,62.6,55.3,29.72,SE,126,5.0,9.0,77,0.00,,---,0.00,VWS V14.01,2013-01-30 10:46:00,
2013-01-30 05:52:00,62.6,55.3,29.72,SE,138,2.0,7.0,77,0.00,,---,0.00,VWS V14.01,2013-01-30 10:52:00,
2013-01-30 05:56:00,62.7,55.4,29.72,SW,217,4.0,6.0,77,0.00,,---,0.00,VWS V14.01,2013-01-30 10:56:00,
2013-01-30 06:01:00,62.9,55.2,29.72,SSE,164,9.0,15.0,76,0.00,,---,0.00,VWS V14.01,2013-01-30 11:01:00,
2013-01-30 06:06:00,63.1,55.4,29.72,West,279,2.0,7.0,76,0.00,,---,0.00,VWS V14.01,2013-01-30 11:06:00,
2013-01-30 06:11:00,63.2,55.5,29.72,SSE,158,2.0,9.0,76,0.00,,---,0.00,VWS V14.01,2013-01-30 11:11:00,
2013-01-30 06:16:00,63.4,55.7,29.73,South,186,6.0,10.0,76,0.00,,---,0.00,VWS V14.01,2013-01-30 11:16:00,
2013-01-30 06:21:00,63.4,56.1,29.73,ESE,121,1.0,7.0,77,0.00,,---,0.00,VWS V14.01,2013-01-30 11:21:00,
2013-01-30 06:26:00,63.4,56.1,29.73,SSW,197,5.0,7.0,77,0.00,,---,0.00,VWS V14.01,2013-01-30 11:26:00,
2013-01-30 06:31:00,63.4,56.1,29.73,SE,142,8.0,8.0,77,0.00,,---,0.00,VWS V14.01,2013-01-30 11:31:00,
2013-01-30 06:36:00,63.4,56.1,29.73,SSW,198,10.0,10.0,77,0.00,,---,0.00,VWS V14.01,2013-01-30 11:36:00,
2013-01-30 06:41:00,63.4,56.1,29.73,SE,146,5.0,11.0,77,0.00,,---,0.00,VWS V14.01,2013-01-30 11:41:00,
2013-01-30 06:46:00,63.4,56.1,29.72,South,182,5.0,8.0,77,0.00,,---,0.00,VWS V14.01,2013-01-30 11:46:00,
2013-01-30 06:51:00,63.4,55.7,29.72,SE,144,6.0,9.0,76,0.00,,---,0.00,VWS V14.01,2013-01-30 11:51:00,
2013-01-30 06:56:00,63.4,55.7,29.72,SSE,152,4.0,9.0,76,0.00,,---,0.00,VWS V14.01,2013-01-30 11:56:00,
2013-01-30 07:01:00,63.4,55.7,29.71,SSW,205,11.0,13.0,76,0.00,,---,0.00,VWS V14.01,2013-01-30 12:01:00,
2013-01-30 07:06:00,63.7,55.6,29.71,South,180,6.0,8.0,75,0.00,,---,0.00,VWS V14.01,2013-01-30 12:06:00,
2013-01-30 07:11:00,63.5,55.8,29.71,SE,129,5.0,9.0,76,0.00,,---,0.00,VWS V14.01,2013-01-30 12:11:00,
2013-01-30 07:16:00,63.4,55.7,29.71,SE,134,4.0,10.0,76,0.00,,---,0.00,VWS V14.01,2013-01-30 12:16:00,
2013-01-30 07:21:00,63.2,55.5,29.71,SSW,194,9.0,9.0,76,0.00,,---,0.00,VWS V14.01,2013-01-30 12:21:00,
2013-01-30 07:26:00,63.2,55.9,29.71,South,191,13.0,13.0,77,0.00,,---,0.00,VWS V14.01,2013-01-30 12:26:00,
2013-01-30 07:31:00,63.4,56.1,29.71,East,98,7.0,14.0,77,0.00,,---,0.00,VWS V14.01,2013-01-30 12:31:00,
2013-01-30 07:36:00,63.7,56.0,29.71,ESE,122,11.0,11.0,76,0.00,,---,0.00,VWS V14.01,2013-01-30 12:36:00,
2013-01-30 07:41:00,63.9,55.8,29.71,SSE,148,4.0,9.0,75,0.00,,---,0.00,VWS V14.01,2013-01-30 12:41:00,
2013-01-30 07:46:00,63.9,55.8,29.71,SSE,157,2.0,4.0,75,0.00,,---,0.00,VWS V14.01,2013-01-30 12:46:00,
2013-01-30 07:51:00,63.9,55.8,29.71,South,187,7.0,12.0,75,0.00,,---,0.00,VWS V14.01,2013-01-30 12:51:00,
2013-01-30 07:56:00,63.9,55.8,29.71,SSW,205,2.0,6.0,75,0.00,,---,0.00,VWS V14.01,2013-01-30 12:56:00,
2013-01-30 08:01:00,64.0,55.9,29.70,SSW,209,9.0,9.0,75,0.00,,---,0.00,VWS V14.01,2013-01-30 13:01:00,
2013-01-30 08:06:00,64.2,56.1,29.70,SSE,150,6.0,9.0,75,0.00,,---,0.00,VWS V14.01,2013-01-30 13:06:00,
2013-01-30 08:11:00,64.3,56.2,29.70,SSW,193,9.0,13.0,75,0.00,,---,0.00,VWS V14.01,2013-01-30 13:11:00,
2013-01-30 08:16:00,64.3,56.2,29.70,SSW,198,9.0,14.0,75,0.00,,---,0.00,VWS V14.01,2013-01-30 13:16:00,
2013-01-30 08:21:00,64.5,56.4,29.70,South,190,4.0,7.0,75,0.00,,---,0.00,VWS V14.01,2013-01-30 13:21:00,
2013-01-30 08:26:00,64.5,56.4,29.70,South,180,6.0,9.0,75,0.00,,---,0.00,VWS V14.01,2013-01-30 13:26:00,
2013-01-30 08:31:00,64.5,56.4,29.70,WSW,254,8.0,12.0,75,0.00,,---,0.00,VWS V14.01,2013-01-30 13:31:00,
2013-01-30 08:36:00,64.5,56.4,29.70,SSE,148,6.0,10.0,75,0.00,,---,0.00,VWS V14.01,2013-01-30 13:36:00,
2013-01-30 08:41:00,64.5,56.4,29.70,South,170,11.0,13.0,75,0.00,,---,0.00,VWS V14.01,2013-01-30 13:41:00,
2013-01-30 08:46:00,64.7,56.6,29.70,SSW,194,7.0,13.0,75,0.00,,---,0.00,VWS V14.01,2013-01-30 13:46:00,
2013-01-30 08:51:00,64.7,56.6,29.70,SSE,157,6.0,10.0,75,0.00,,---,0.00,VWS V14.01,2013-01-30 13:51:00,
2013-01-30 08:56:00,64.8,56.7,29.70,SE,131,5.0,11.0,75,0.00,,---,0.00,VWS V14.01,2013-01-30 13:56:00,
2013-01-30 09:01:00,64.8,56.7,29.69,SE,138,9.0,10.0,75,0.00,,---,0.00,VWS V14.01,2013-01-30 14:01:00,
2013-01-30 09:06:00,65.0,56.9,29.69,SE,136,4.0,11.0,75,0.00,,---,0.00,VWS V14.01,2013-01-30 14:06:00,
2013-01-30 09:11:00,65.2,57.1,29.69,SSE,155,5.0,10.0,75,0.00,,---,0.00,VWS V14.01,2013-01-30 14:11:00,
2013-01-30 09:16:00,65.3,57.2,29.67,SE,136,13.0,13.0,75,0.00,,---,0.00,VWS V14.01,2013-01-30 14:16:00,
2013-01-30 09:21:00,65.5,57.0,29.67,South,180,3.0,8.0,74,0.00,,---,0.00,VWS V14.01,2013-01-30 14:21:00,
2013-01-30 09:26:00,65.6,57.1,29.67,East,92,10.0,12.0,74,0.00,,---,0.00,VWS V14.01,2013-01-30 14:26:00,
2013-01-30 09:31:00,65.8,56.9,29.67,South,174,16.0,16.0,73,0.00,,---,0.00,VWS V14.01,2013-01-30 14:31:00,
2013-01-30 09:36:00,66.0,57.1,29.67,SSE,165,8.0,9.0,73,0.00,,---,0.00,VWS V14.01,2013-01-30 14:36:00,
2013-01-30 09:41:00,66.0,57.1,29.67,SE,136,8.0,13.0,73,0.00,,---,0.00,VWS V14.01,2013-01-30 14:41:00,
2013-01-30 09:46:00,66.0,57.5,29.67,South,190,10.0,14.0,74,0.00,,---,0.00,VWS V14.01,2013-01-30 14:46:00,
2013-01-30 09:51:00,66.0,57.5,29.67,South,178,12.0,12.0,74,0.00,,---,0.00,VWS V14.01,2013-01-30 14:51:00,
2013-01-30 09:56:00,66.0,57.5,29.67,SSW,197,5.0,8.0,74,0.00,,---,0.00,VWS V14.01,2013-01-30 14:56:00,
2013-01-30 10:01:00,66.0,57.5,29.66,SSE,161,5.0,11.0,74,0.00,,---,0.00,VWS V14.01,2013-01-30 15:01:00,
2013-01-30 10:06:00,66.1,57.6,29.66,SE,140,5.0,15.0,74,0.00,,---,0.00,VWS V14.01,2013-01-30 15:06:00,
2013-01-30 10:11:00,66.1,57.6,29.66,South,180,9.0,12.0,74,0.00,,---,0.00,VWS V14.01,2013-01-30 15:11:00,
2013-01-30 10:16:00,66.1,57.6,29.66,South,185,9.0,9.0,74,0.00,,---,0.00,VWS V14.01,2013-01-30 15:16:00,
2013-01-30 10:21:00,66.3,57.8,29.66,SW,217,10.0,10.0,74,0.00,,---,0.00,VWS V14.01,2013-01-30 15:21:00,
2013-01-30 10:26:00,66.3,57.8,29.66,SSW,209,8.0,9.0,74,0.00,,---,0.00,VWS V14.01,2013-01-30 15:26:00,
2013-01-30 10:31:00,66.6,58.1,29.66,SSE,163,7.0,12.0,74,0.00,,---,0.00,VWS V14.01,2013-01-30 15:31:00,
2013-01-30 10:36:00,66.9,58.0,29.66,SSE,167,6.0,11.0,73,0.00,,---,0.00,VWS V14.01,2013-01-30 15:36:00,
2013-01-30 10:41:00,67.1,58.2,29.66,SSW,202,10.0,12.0,73,0.00,,---,0.00,VWS V14.01,2013-01-30 15:41:00,
2013-01-30 10:46:00,67.4,58.1,29.64,South,186,6.0,6.0,72,0.00,,---,0.00,VWS V14.01,2013-01-30 15:46:00,
2013-01-30 10:51:00,67.6,58.3,29.64,SSE,163,5.0,15.0,72,0.00,,---,0.00,VWS V14.01,2013-01-30 15:51:00,
2013-01-30 10:56:00,67.6,58.3,29.64,SSE,161,9.0,13.0,72,0.00,,---,0.00,VWS V14.01,2013-01-30 15:56:00,
2013-01-30 11:01:00,67.6,58.3,29.63,SE,130,6.0,14.0,72,0.00,,---,0.00,VWS V14.01,2013-01-30 16:01:00,
2013-01-30 11:06:00,67.8,58.1,29.63,SSW,204,2.0,13.0,71,0.00,,---,0.00,VWS V14.01,2013-01-30 16:06:00,
2013-01-30 11:11:00,67.8,58.1,29.63,South,173,10.0,10.0,71,0.00,,---,0.00,VWS V14.01,2013-01-30 16:11:00,
2013-01-30 11:16:00,68.1,58.3,29.63,South,181,9.0,12.0,71,0.00,,---,0.00,VWS V14.01,2013-01-30 16:16:00,
2013-01-30 11:21:00,68.3,58.2,29.63,ESE,107,9.0,12.0,70,0.00,,---,0.00,VWS V14.01,2013-01-30 16:21:00,
2013-01-30 11:26:00,68.4,58.2,29.63,South,172,8.0,19.0,70,0.00,,---,0.00,VWS V14.01,2013-01-30 16:26:00,
2013-01-30 11:31:00,68.3,58.5,29.61,SSW,200,6.0,11.0,71,0.00,,---,0.00,VWS V14.01,2013-01-30 16:31:00,
2013-01-30 11:36:00,67.6,58.7,29.61,ESE,108,19.0,19.0,73,0.00,,---,0.00,VWS V14.01,2013-01-30 16:36:00,
2013-01-30 11:41:00,67.1,58.9,29.61,SSE,151,11.0,13.0,75,0.00,,---,0.00,VWS V14.01,2013-01-30 16:41:00,
2013-01-30 11:46:00,66.6,59.2,29.61,ESE,122,6.0,14.0,77,0.00,,---,0.00,VWS V14.01,2013-01-30 16:46:00,
2013-01-30 11:51:00,66.4,59.0,29.61,South,183,8.0,10.0,77,0.00,,---,0.00,VWS V14.01,2013-01-30 16:51:00,
2013-01-30 11:56:00,66.6,59.2,29.61,ESE,115,10.0,14.0,77,0.00,,---,0.00,VWS V14.01,2013-01-30 16:56:00,
2013-01-30 12:01:00,66.6,59.2,29.60,SE,129,15.0,15.0,77,0.00,,---,0.00,VWS V14.01,2013-01-30 17:01:00,
2013-01-30 12:06:00,66.4,59.0,29.60,SSE,148,7.0,22.0,77,0.00,,---,0.00,VWS V14.01,2013-01-30 17:06:00,
2013-01-30 12:11:00,66.8,58.6,29.60,ESE,112,7.0,14.0,75,0.00,,---,0.00,VWS V14.01,2013-01-30 17:11:00,
2013-01-30 12:16:00,67.1,58.9,29.58,SSE,165,10.0,12.0,75,0.00,,---,0.00,VWS V14.01,2013-01-30 17:16:00,
2013-01-30 12:21:00,66.9,58.7,29.58,SW,218,5.0,18.0,75,0.00,,---,0.00,VWS V14.01,2013-01-30 17:21:00,
2013-01-30 12:26:00,67.3,58.7,29.58,South,169,8.0,23.0,74,0.01,,---,0.01,VWS V14.01,2013-01-30 17:26:00,
2013-01-30 12:31:00,67.4,58.5,29.57,South,182,8.0,16.0,73,0.01,,---,0.01,VWS V14.01,2013-01-30 17:31:00,
2013-01-30 12:36:00,67.8,58.8,29.57,SE,142,11.0,21.0,73,0.01,,---,0.01,VWS V14.01,2013-01-30 17:36:00,
2013-01-30 12:41:00,67.9,58.9,29.57,South,186,6.0,10.0,73,0.01,,---,0.01,VWS V14.01,2013-01-30 17:41:00,
2013-01-30 12:46:00,68.1,58.7,29.55,SSE,168,6.0,10.0,72,0.01,,---,0.01,VWS V14.01,2013-01-30 17:46:00,
2013-01-30 12:51:00,68.4,59.0,29.55,South,174,9.0,14.0,72,0.01,,---,0.01,VWS V14.01,2013-01-30 17:51:00,
2013-01-30 12:56:00,68.6,58.8,29.55,SSW,196,9.0,20.0,71,0.01,,---,0.01,VWS V14.01,2013-01-30 17:56:00,
2013-01-30 13:01:00,68.6,58.8,29.55,SSE,164,13.0,13.0,71,0.01,,---,0.01,VWS V14.01,2013-01-30 18:01:00,
2013-01-30 13:06:00,68.6,58.8,29.55,SSW,213,5.0,12.0,71,0.01,,---,0.01,VWS V14.01,2013-01-30 18:06:00,
2013-01-30 13:11:00,68.3,58.9,29.55,ESE,119,6.0,11.0,72,0.01,,---,0.01,VWS V14.01,2013-01-30 18:11:00,
2013-01-30 13:16:00,67.9,58.9,29.55,SE,140,9.0,12.0,73,0.01,,---,0.01,VWS V14.01,2013-01-30 18:16:00,
2013-01-30 13:21:00,67.9,58.9,29.55,South,172,6.0,10.0,73,0.01,,---,0.01,VWS V14.01,2013-01-30 18:21:00,
2013-01-30 13:26:00,68.1,59.1,29.55,South,175,6.0,11.0,73,0.01,,---,0.01,VWS V14.01,2013-01-30 18:26:00,
2013-01-30 13:31:00,68.3,58.9,29.53,SE,134,4.0,12.0,72,0.00,,---,0.01,VWS V14.01,2013-01-30 18:31:00,
2013-01-30 13:36:00,68.4,59.0,29.53,WSW,254,14.0,14.0,72,0.00,,---,0.01,VWS V14.01,2013-01-30 18:36:00,
2013-01-30 13:41:00,68.4,59.0,29.53,SSE,161,8.0,12.0,72,0.00,,---,0.01,VWS V14.01,2013-01-30 18:41:00,
2013-01-30 13:46:00,68.6,59.2,29.52,SE,138,6.0,10.0,72,0.00,,---,0.01,VWS V14.01,2013-01-30 18:46:00,
2013-01-30 13:51:00,68.8,59.0,29.52,South,178,11.0,11.0,71,0.00,,---,0.01,VWS V14.01,2013-01-30 18:51:00,
2013-01-30 13:56:00,69.1,58.9,29.52,SSE,164,7.0,11.0,70,0.00,,---,0.01,VWS V14.01,2013-01-30 18:56:00,
2013-01-30 14:01:00,69.3,58.7,29.51,South,171,6.0,11.0,69,0.00,,---,0.01,VWS V14.01,2013-01-30 19:01:00,
2013-01-30 14:06:00,69.4,59.2,29.51,SSE,155,2.0,9.0,70,0.00,,---,0.01,VWS V14.01,2013-01-30 19:06:00,
2013-01-30 14:11:00,68.8,59.8,29.51,SSE,157,10.0,12.0,73,0.00,,---,0.01,VWS V14.01,2013-01-30 19:11:00,
2013-01-30 14:16:00,67.8,60.0,29.51,ESE,111,8.0,11.0,76,0.00,,---,0.01,VWS V14.01,2013-01-30 19:16:00,
2013-01-30 14:21:00,66.9,60.2,29.51,SE,127,6.0,8.0,79,0.00,,---,0.01,VWS V14.01,2013-01-30 19:21:00,
2013-01-30 14:26:00,66.4,60.0,29.51,SSE,161,6.0,8.0,80,0.00,,---,0.01,VWS V14.01,2013-01-30 19:26:00,
2013-01-30 14:31:00,66.4,60.0,29.50,SE,136,5.0,9.0,80,0.00,,---,0.01,VWS V14.01,2013-01-30 19:31:00,
2013-01-30 14:36:00,66.4,60.0,29.50,SE,140,9.0,11.0,80,0.00,,---,0.01,VWS V14.01,2013-01-30 19:36:00,
2013-01-30 14:41:00,66.6,59.5,29.50,South,187,5.0,9.0,78,0.01,,---,0.02,VWS V14.01,2013-01-30 19:41:00,
2013-01-30 14:46:00,66.9,59.5,29.50,South,171,3.0,7.0,77,0.01,,---,0.02,VWS V14.01,2013-01-30 19:46:00,
2013-01-30 14:51:00,67.1,59.3,29.50,South,178,2.0,7.0,76,0.01,,---,0.02,VWS V14.01,2013-01-30 19:51:00,
2013-01-30 14:56:00,67.3,59.5,29.50,SW,227,11.0,11.0,76,0.01,,---,0.02,VWS V14.01,2013-01-30 19:56:00,
2013-01-30 15:01:00,67.6,59.0,29.49,SE,132,8.0,11.0,74,0.01,,---,0.02,VWS V14.01,2013-01-30 20:01:00,
2013-01-30 15:06:00,67.8,59.2,29.49,SE,138,7.0,10.0,74,0.01,,---,0.02,VWS V14.01,2013-01-30 20:06:00,
2013-01-30 15:11:00,67.8,58.8,29.49,SE,128,6.0,10.0,73,0.01,,---,0.02,VWS V14.01,2013-01-30 20:11:00,
2013-01-30 15:16:00,68.1,58.7,29.46,South,182,6.0,11.0,72,0.01,,---,0.02,VWS V14.01,2013-01-30 20:16:00,
2013-01-30 15:21:00,68.1,58.7,29.46,SE,128,10.0,11.0,72,0.01,,---,0.02,VWS V14.01,2013-01-30 20:21:00,
2013-01-30 15:26:00,68.1,58.7,29.46,ESE,107,2.0,10.0,72,0.01,,---,0.02,VWS V14.01,2013-01-30 20:26:00,
2013-01-30 15:31:00,68.1,58.7,29.46,SSE,153,2.0,2.0,72,0.01,,---,0.02,VWS V14.01,2013-01-30 20:31:00,
2013-01-30 15:36:00,67.6,59.4,29.46,SE,141,3.0,4.0,75,0.01,,---,0.02,VWS V14.01,2013-01-30 20:36:00,
2013-01-30 15:41:00,67.1,59.3,29.46,SSE,161,5.0,10.0,76,0.00,,---,0.02,VWS V14.01,2013-01-30 20:41:00,
2013-01-30 15:46:00,66.9,59.5,29.44,ESE,121,2.0,10.0,77,0.00,,---,0.02,VWS V14.01,2013-01-30 20:46:00,
2013-01-30 15:51:00,66.8,59.4,29.44,SE,130,1.0,5.0,77,0.00,,---,0.02,VWS V14.01,2013-01-30 20:51:00,
2013-01-30 15:56:00,66.8,59.7,29.44,ESE,106,0.0,6.0,78,0.00,,---,0.02,VWS V14.01,2013-01-30 20:56:00,
2013-01-30 16:01:00,66.8,59.4,29.44,SE,144,3.0,5.0,77,0.00,,---,0.02,VWS V14.01,2013-01-30 21:01:00,
2013-01-30 16:06:00,67.1,58.5,29.44,SE,142,2.0,6.0,74,0.00,,---,0.02,VWS V14.01,2013-01-30 21:06:00,
2013-01-30 16:11:00,67.6,58.3,29.44,SE,133,6.0,11.0,72,0.00,,---,0.02,VWS V14.01,2013-01-30 21:11:00,
2013-01-30 16:16:00,68.4,58.2,29.42,SSE,159,1.0,5.0,70,0.00,,---,0.02,VWS V14.01,2013-01-30 21:16:00,
2013-01-30 16:21:00,68.3,59.3,29.42,ENE,68,2.0,4.0,73,0.00,,---,0.02,VWS V14.01,2013-01-30 21:21:00,
2013-01-30 16:26:00,67.6,59.0,29.42,SSE,151,5.0,6.0,74,0.00,,---,0.02,VWS V14.01,2013-01-30 21:26:00,
2013-01-30 16:31:00,67.8,58.5,29.44,SSW,208,7.0,18.0,72,0.00,,---,0.02,VWS V14.01,2013-01-30 21:31:00,
2013-01-30 16:36:00,67.8,57.3,29.44,SSW,209,8.0,15.0,69,0.00,,---,0.02,VWS V14.01,2013-01-30 21:36:00,
2013-01-30 16:41:00,63.7,55.3,29.44,West,276,7.0,7.0,74,0.00,,---,0.02,VWS V14.01,2013-01-30 21:41:00,
2013-01-30 16:46:00,61.8,55.2,29.44,WSW,250,7.0,8.0,79,0.00,,---,0.02,VWS V14.01,2013-01-30 21:46:00,
2013-01-30 16:51:00,60.5,55.0,29.44,West,269,8.0,12.0,82,0.00,,---,0.02,VWS V14.01,2013-01-30 21:51:00,
2013-01-30 16:56:00,59.8,55.0,29.44,WNW,292,6.0,7.0,84,0.00,,---,0.02,VWS V14.01,2013-01-30 21:56:00,
2013-01-30 17:01:00,59.2,55.0,29.44,WNW,287,7.0,13.0,86,0.00,,---,0.02,VWS V14.01,2013-01-30 22:01:00,
2013-01-30 17:06:00,58.7,55.2,29.44,WSW,252,6.0,8.0,88,0.01,,---,0.03,VWS V14.01,2013-01-30 22:06:00,
2013-01-30 17:11:00,58.1,55.2,29.44,West,281,6.0,8.0,90,0.03,,---,0.05,VWS V14.01,2013-01-30 22:11:00,
2013-01-30 17:16:00,58.0,55.4,29.45,WSW,254,4.0,5.0,91,0.04,,---,0.06,VWS V14.01,2013-01-30 22:16:00,
2013-01-30 17:21:00,57.6,55.3,29.45,WSW,255,2.0,5.0,92,0.05,,---,0.07,VWS V14.01,2013-01-30 22:21:00,
2013-01-30 17:26:00,57.5,55.5,29.45,West,268,5.0,5.0,93,0.07,,---,0.09,VWS V14.01,2013-01-30 22:26:00,
2013-01-30 17:31:00,57.3,55.3,29.47,SSW,207,2.0,2.0,93,0.09,,---,0.11,VWS V14.01,2013-01-30 22:31:00,
2013-01-30 17:36:00,57.2,55.5,29.47,SSW,200,2.0,2.0,94,0.11,,---,0.13,VWS V14.01,2013-01-30 22:36:00,
2013-01-30 17:41:00,57.0,55.3,29.47,SSW,200,0.0,0.0,94,0.14,,---,0.16,VWS V14.01,2013-01-30 22:41:00,
2013-01-30 17:46:00,57.0,55.3,29.47,SSW,200,0.0,0.0,94,0.17,,---,0.19,VWS V14.01,2013-01-30 22:46:00,
2013-01-30 17:51:00,57.0,55.3,29.47,SSW,200,0.0,0.0,94,0.20,,---,0.22,VWS V14.01,2013-01-30 22:51:00,
2013-01-30 17:56:00,56.9,55.5,29.47,SSW,200,0.0,0.0,95,0.23,,---,0.25,VWS V14.01,2013-01-30 22:56:00,
2013-01-30 18:01:00,56.9,55.5,29.47,SSW,200,0.0,0.0,95,0.26,,---,0.28,VWS V14.01,2013-01-30 23:01:00,
2013-01-30 18:06:00,56.9,55.5,29.47,SSW,200,0.0,0.0,95,0.28,,---,0.31,VWS V14.01,2013-01-30 23:06:00,
2013-01-30 18:11:00,56.9,55.5,29.47,SSW,200,0.0,1.0,95,0.30,,---,0.34,VWS V14.01,2013-01-30 23:11:00,
2013-01-30 18:16:00,56.7,55.3,29.47,SSW,200,0.0,1.0,95,0.30,,---,0.36,VWS V14.01,2013-01-30 23:16:00,
2013-01-30 18:21:00,56.6,55.2,29.47,SSW,200,0.0,0.0,95,0.32,,---,0.39,VWS V14.01,2013-01-30 23:21:00,
2013-01-30 18:26:00,56.6,55.5,29.47,SSW,200,0.0,0.0,96,0.33,,---,0.42,VWS V14.01,2013-01-30 23:26:00,
2013-01-30 18:31:00,56.6,55.5,29.45,SSW,200,0.0,0.0,96,0.34,,---,0.44,VWS V14.01,2013-01-30 23:31:00,
2013-01-30 18:36:00,56.5,55.4,29.45,SSW,200,0.0,0.0,96,0.33,,---,0.46,VWS V14.01,2013-01-30 23:36:00,
2013-01-30 18:41:00,56.5,55.4,29.45,SSW,200,0.0,0.0,96,0.32,,---,0.48,VWS V14.01,2013-01-30 23:41:00,
2013-01-30 18:46:00,56.5,55.4,29.43,SSW,200,0.0,0.0,96,0.32,,---,0.50,VWS V14.01,2013-01-30 23:46:00,
2013-01-30 18:51:00,56.3,55.2,29.43,SSW,200,0.0,0.0,96,0.30,,---,0.52,VWS V14.01,2013-01-30 23:51:00,
2013-01-30 18:56:00,56.3,55.2,29.43,SSW,200,0.0,0.0,96,0.29,,---,0.54,VWS V14.01,2013-01-30 23:56:00,
2013-01-30 19:01:00,56.3,55.2,29.44,SSW,200,0.0,1.0,96,0.28,,---,0.56,VWS V14.01,2013-01-31 00:01:00,
2013-01-30 19:06:00,56.3,55.5,29.44,SSW,200,0.0,0.0,97,0.28,,---,0.58,VWS V14.01,2013-01-31 00:06:00,
2013-01-30 19:11:00,56.3,55.5,29.44,SSW,200,0.0,1.0,97,0.27,,---,0.60,VWS V14.01,2013-01-31 00:11:00,
2013-01-30 19:16:00,56.3,55.5,29.43,SSW,200,1.0,4.0,97,0.26,,---,0.62,VWS V14.01,2013-01-31 00:16:00,
2013-01-30 19:21:00,56.5,55.7,29.43,SSW,195,1.0,4.0,97,0.25,,---,0.63,VWS V14.01,2013-01-31 00:21:00,
2013-01-30 19:26:00,56.3,55.5,29.43,SSW,195,0.0,0.0,97,0.23,,---,0.64,VWS V14.01,2013-01-31 00:26:00,
2013-01-30 19:31:00,56.3,55.5,29.40,SSW,195,0.0,1.0,97,0.22,,---,0.66,VWS V14.01,2013-01-31 00:31:00,
2013-01-30 19:36:00,56.2,55.4,29.40,SSW,195,0.0,0.0,97,0.22,,---,0.68,VWS V14.01,2013-01-31 00:36:00,
2013-01-30 19:41:00,56.2,55.4,29.40,SSW,195,0.0,0.0,97,0.22,,---,0.70,VWS V14.01,2013-01-31 00:41:00,
2013-01-30 19:46:00,56.0,55.2,29.39,SSW,195,0.0,1.0,97,0.21,,---,0.71,VWS V14.01,2013-01-31 00:46:00,
2013-01-30 19:51:00,56.0,55.2,29.39,SSW,195,0.0,0.0,97,0.20,,---,0.72,VWS V14.01,2013-01-31 00:51:00,
2013-01-30 19:56:00,56.0,55.2,29.39,SSW,195,0.0,0.0,97,0.20,,---,0.74,VWS V14.01,2013-01-31 00:56:00,
2013-01-30 20:01:00,56.0,55.2,29.37,SSW,195,0.0,0.0,97,0.19,,---,0.75,VWS V14.01,2013-01-31 01:01:00,
2013-01-30 20:06:00,55.9,55.1,29.37,SSW,195,0.0,0.0,97,0.18,,---,0.76,VWS V14.01,2013-01-31 01:06:00,
2013-01-30 20:11:00,55.9,55.1,29.37,SSW,195,0.0,0.0,97,0.17,,---,0.77,VWS V14.01,2013-01-31 01:11:00,
2013-01-30 20:16:00,55.9,55.1,29.34,SSW,195,0.0,0.0,97,0.16,,---,0.78,VWS V14.01,2013-01-31 01:16:00,
2013-01-30 20:21:00,55.7,54.9,29.34,SSW,195,0.0,0.0,97,0.17,,---,0.80,VWS V14.01,2013-01-31 01:21:00,
2013-01-30 20:26:00,55.7,54.9,29.34,SSW,195,0.0,0.0,97,0.17,,---,0.81,VWS V14.01,2013-01-31 01:26:00,
2013-01-30 20:31:00,55.7,54.9,29.32,SSW,195,0.0,0.0,97,0.16,,---,0.82,VWS V14.01,2013-01-31 01:31:00,
2013-01-30 20:36:00,55.6,55.0,29.32,SSW,195,0.0,0.0,98,0.15,,---,0.83,VWS V14.01,2013-01-31 01:36:00,
2013-01-30 20:41:00,55.6,55.0,29.32,SSW,195,0.0,0.0,98,0.14,,---,0.84,VWS V14.01,2013-01-31 01:41:00,
2013-01-30 20:46:00,55.6,55.0,29.32,SSW,195,0.0,0.0,98,0.15,,---,0.86,VWS V14.01,2013-01-31 01:46:00,
2013-01-30 20:51:00,55.6,55.0,29.32,SSW,195,0.0,0.0,98,0.14,,---,0.86,VWS V14.01,2013-01-31 01:51:00,
2013-01-30 20:56:00,55.4,54.8,29.32,SSW,195,0.0,0.0,98,0.14,,---,0.88,VWS V14.01,2013-01-31 01:56:00,
2013-01-30 21:01:00,55.4,54.8,29.31,SSW,195,0.0,0.0,98,0.15,,---,0.90,VWS V14.01,2013-01-31 02:01:00,
2013-01-30 21:06:00,55.4,54.8,29.31,SSW,195,1.0,1.0,98,0.15,,---,0.91,VWS V14.01,2013-01-31 02:06:00,
2013-01-30 21:11:00,55.4,54.8,29.31,SSW,194,0.0,0.0,98,0.16,,---,0.93,VWS V14.01,2013-01-31 02:11:00,
2013-01-30 21:16:00,55.3,54.8,29.31,SSW,194,0.0,0.0,98,0.17,,---,0.95,VWS V14.01,2013-01-31 02:16:00,
2013-01-30 21:21:00,55.3,54.8,29.31,SSW,194,1.0,2.0,98,0.15,,---,0.95,VWS V14.01,2013-01-31 02:21:00,
2013-01-30 21:26:00,55.3,54.8,29.31,SSW,194,0.0,0.0,98,0.16,,---,0.97,VWS V14.01,2013-01-31 02:26:00,
2013-01-30 21:31:00,55.3,54.8,29.29,SSW,194,0.0,0.0,98,0.17,,---,0.99,VWS V14.01,2013-01-31 02:31:00,
2013-01-30 21:36:00,55.1,54.5,29.29,SSW,194,0.0,0.0,98,0.18,,---,1.01,VWS V14.01,2013-01-31 02:36:00,
2013-01-30 21:41:00,55.1,54.5,29.29,SSW,194,0.0,0.0,98,0.19,,---,1.03,VWS V14.01,2013-01-31 02:41:00,
2013-01-30 21:46:00,55.1,54.5,29.29,SSW,194,0.0,0.0,98,0.19,,---,1.05,VWS V14.01,2013-01-31 02:46:00,
2013-01-30 21:51:00,55.1,54.5,29.29,SSW,194,0.0,0.0,98,0.21,,---,1.07,VWS V14.01,2013-01-31 02:51:00,
2013-01-30 21:56:00,55.1,54.5,29.29,SSW,194,0.0,0.0,98,0.21,,---,1.09,VWS V14.01,2013-01-31 02:56:00,
2013-01-30 22:01:00,55.1,54.5,29.27,SSW,194,0.0,0.0,98,0.21,,---,1.11,VWS V14.01,2013-01-31 03:01:00,
2013-01-30 22:06:00,55.1,54.5,29.27,SSW,194,0.0,0.0,98,0.22,,---,1.13,VWS V14.01,2013-01-31 03:06:00,
2013-01-30 22:11:00,55.1,54.5,29.27,SSW,194,0.0,0.0,98,0.23,,---,1.15,VWS V14.01,2013-01-31 03:11:00,
2013-01-30 22:16:00,55.1,54.5,29.24,SSW,194,0.0,1.0,98,0.23,,---,1.17,VWS V14.01,2013-01-31 03:16:00,
2013-01-30 22:21:00,55.1,54.5,29.24,SSW,195,0.0,0.0,98,0.24,,---,1.19,VWS V14.01,2013-01-31 03:21:00,
2013-01-30 22:26:00,55.1,54.5,29.24,SSW,195,0.0,0.0,98,0.24,,---,1.21,VWS V14.01,2013-01-31 03:26:00,
2013-01-30 22:31:00,55.0,54.5,29.21,SSW,195,0.0,0.0,98,0.24,,---,1.23,VWS V14.01,2013-01-31 03:31:00,
2013-01-30 22:36:00,55.0,54.5,29.21,SSW,195,0.0,0.0,98,0.23,,---,1.24,VWS V14.01,2013-01-31 03:36:00,
2013-01-30 22:41:00,55.0,54.5,29.21,SSW,195,0.0,0.0,98,0.23,,---,1.26,VWS V14.01,2013-01-31 03:41:00,
2013-01-30 22:46:00,55.0,54.5,29.22,SSW,195,0.0,0.0,98,0.23,,---,1.28,VWS V14.01,2013-01-31 03:46:00,
2013-01-30 22:51:00,54.8,54.2,29.22,SSW,195,0.0,0.0,98,0.22,,---,1.29,VWS V14.01,2013-01-31 03:51:00,
2013-01-30 22:56:00,55.0,54.5,29.22,SSW,195,0.0,1.0,98,0.22,,---,1.31,VWS V14.01,2013-01-31 03:56:00,
2013-01-30 23:01:00,55.3,54.8,29.24,South,182,0.0,0.0,98,0.22,,---,1.33,VWS V14.01,2013-01-31 04:01:00,
2013-01-30 23:06:00,55.4,54.8,29.24,South,182,0.0,0.0,98,0.22,,---,1.35,VWS V14.01,2013-01-31 04:06:00,
2013-01-30 23:11:00,55.4,54.8,29.24,South,182,2.0,2.0,98,0.21,,---,1.36,VWS V14.01,2013-01-31 04:11:00,
2013-01-30 23:16:00,55.6,55.0,29.24,South,182,0.0,0.0,98,0.21,,---,1.38,VWS V14.01,2013-01-31 04:16:00,
2013-01-30 23:21:00,55.7,55.2,29.24,South,182,0.0,0.0,98,0.20,,---,1.39,VWS V14.01,2013-01-31 04:21:00,
2013-01-30 23:26:00,55.7,55.2,29.24,South,182,0.0,0.0,98,0.20,,---,1.41,VWS V14.01,2013-01-31 04:26:00,
2013-01-30 23:31:00,55.7,55.2,29.22,South,188,1.0,1.0,98,0.20,,---,1.43,VWS V14.01,2013-01-31 04:31:00,
2013-01-30 23:36:00,55.7,55.2,29.22,South,178,4.0,4.0,98,0.21,,---,1.45,VWS V14.01,2013-01-31 04:36:00,
2013-01-30 23:41:00,55.7,55.2,29.22,SW,235,5.0,7.0,98,0.20,,---,1.46,VWS V14.01,2013-01-31 04:41:00,
2013-01-30 23:46:00,55.0,54.5,29.23,WSW,239,6.0,6.0,98,0.19,,---,1.47,VWS V14.01,2013-01-31 04:46:00,
2013-01-30 23:51:00,54.5,53.4,29.23,SW,229,6.0,7.0,96,0.20,,---,1.49,VWS V14.01,2013-01-31 04:51:00,
2013-01-30 23:56:00,54.4,52.7,29.23,SSW,211,10.0,12.0,94,0.20,,---,1.51,VWS V14.01,2013-01-31 04:56:00,